sensor_id;sensor_type;location;lat;lon;timestamp;pressure;altitude;pressure_sealevel;temperature;humidity
7075;BME280;3578;51.568;6.932;2023-05-10T00:01:36;48932.00;;;-144.14;100.00
7075;BME280;3578;51.568;6.932;2023-05-10T00:04:04;48948.00;;;-144.14;100.00
7075;BME280;3578;51.568;6.932;2023-05-10T00:06:32;48879.97;;;-144.14;100.00
7075;BME280;3578;51.568;6.932;2023-05-10T00:08:59;48910.00;;;-144.14;100.00
7075;BME280;3578;51.568;6.932;2023-05-10T00:11:26;48928.00;;;-144.14;100.00
7075;BME280;3578;51.568;6.932;2023-05-10T00:13:53;48899.97;;;-144.14;100.00
7075;BME280;3578;51.568;6.932;2023-05-10T00:16:20;48809.91;;;-144.14;100.00
7075;BME280;3578;51.568;6.932;2023-05-10T00:18:47;48707.84;;;-144.14;100.00
7075;BME280;3578;51.568;6.932;2023-05-10T00:21:14;48711.84;;;-144.14;100.00
7075;BME280;3578;51.568;6.932;2023-05-10T00:23:42;48829.94;;;-144.14;100.00
7075;BME280;3578;51.568;6.932;2023-05-10T00:26:09;48857.94;;;-144.14;100.00
7075;BME280;3578;51.568;6.932;2023-05-10T00:28:37;48863.94;;;-144.14;100.00
7075;BME280;3578;51.568;6.932;2023-05-10T00:31:04;48887.97;;;-144.14;100.00
7075;BME280;3578;51.568;6.932;2023-05-10T00:33:31;48887.97;;;-144.14;100.00
7075;BME280;3578;51.568;6.932;2023-05-10T00:35:57;48901.97;;;-144.14;100.00
7075;BME280;3578;51.568;6.932;2023-05-10T00:38:25;48863.94;;;-144.14;100.00
7075;BME280;3578;51.568;6.932;2023-05-10T00:40:53;48903.97;;;-144.14;100.00
7075;BME280;3578;51.568;6.932;2023-05-10T00:43:20;48835.94;;;-144.14;100.00
7075;BME280;3578;51.568;6.932;2023-05-10T00:45:47;48853.94;;;-144.14;100.00
7075;BME280;3578;51.568;6.932;2023-05-10T00:48:15;48827.94;;;-144.14;100.00
7075;BME280;3578;51.568;6.932;2023-05-10T00:50:42;48789.91;;;-144.14;100.00
7075;BME280;3578;51.568;6.932;2023-05-10T00:53:09;48787.91;;;-144.14;100.00
7075;BME280;3578;51.568;6.932;2023-05-10T00:55:37;48773.88;;;-144.14;100.00
7075;BME280;3578;51.568;6.932;2023-05-10T00:58:06;48765.88;;;-144.14;100.00
7075;BME280;3578;51.568;6.932;2023-05-10T01:00:33;48731.84;;;-144.14;100.00
7075;BME280;3578;51.568;6.932;2023-05-10T01:03:00;48739.88;;;-144.14;100.00
7075;BME280;3578;51.568;6.932;2023-05-10T01:05:27;48719.84;;;-144.14;100.00
7075;BME280;3578;51.568;6.932;2023-05-10T01:07:54;48703.84;;;-144.14;100.00
7075;BME280;3578;51.568;6.932;2023-05-10T01:10:22;48747.88;;;-144.14;100.00
7075;BME280;3578;51.568;6.932;2023-05-10T01:12:49;48709.84;;;-144.14;100.00
7075;BME280;3578;51.568;6.932;2023-05-10T01:15:18;48717.84;;;-144.14;100.00
7075;BME280;3578;51.568;6.932;2023-05-10T01:17:47;48711.84;;;-144.14;100.00
7075;BME280;3578;51.568;6.932;2023-05-10T01:20:15;48739.88;;;-144.14;100.00
7075;BME280;3578;51.568;6.932;2023-05-10T01:23:10;48719.84;;;-144.14;100.00
7075;BME280;3578;51.568;6.932;2023-05-10T01:26:19;48739.88;;;-144.14;100.00
7075;BME280;3578;51.568;6.932;2023-05-10T01:29:24;48715.84;;;-144.14;100.00
7075;BME280;3578;51.568;6.932;2023-05-10T01:32:30;48749.88;;;-144.14;100.00
7075;BME280;3578;51.568;6.932;2023-05-10T01:35:02;48739.88;;;-144.14;100.00
7075;BME280;3578;51.568;6.932;2023-05-10T01:37:38;48691.81;;;-144.14;100.00
7075;BME280;3578;51.568;6.932;2023-05-10T01:40:15;48667.81;;;-144.14;100.00
7075;BME280;3578;51.568;6.932;2023-05-10T01:42:50;48679.81;;;-144.14;100.00
7075;BME280;3578;51.568;6.932;2023-05-10T01:45:27;48633.78;;;-144.14;100.00
7075;BME280;3578;51.568;6.932;2023-05-10T01:48:06;48687.81;;;-144.14;100.00
7075;BME280;3578;51.568;6.932;2023-05-10T01:50:35;48669.81;;;-144.14;100.00
7075;BME280;3578;51.568;6.932;2023-05-10T01:53:07;48635.78;;;-144.14;100.00
7075;BME280;3578;51.568;6.932;2023-05-10T01:55:42;48591.75;;;-144.14;100.00
7075;BME280;3578;51.568;6.932;2023-05-10T01:58:14;48565.75;;;-144.14;100.00
7075;BME280;3578;51.568;6.932;2023-05-10T02:00:45;48563.75;;;-144.14;100.00
7075;BME280;3578;51.568;6.932;2023-05-10T02:03:15;48507.72;;;-144.14;100.00
7075;BME280;3578;51.568;6.932;2023-05-10T02:05:43;48507.72;;;-144.14;100.00
7075;BME280;3578;51.568;6.932;2023-05-10T02:08:12;48475.69;;;-144.14;100.00
7075;BME280;3578;51.568;6.932;2023-05-10T02:10:40;48497.69;;;-144.14;100.00
7075;BME280;3578;51.568;6.932;2023-05-10T02:13:10;48521.72;;;-144.14;100.00
7075;BME280;3578;51.568;6.932;2023-05-10T02:15:39;48457.66;;;-144.14;100.00
7075;BME280;3578;51.568;6.932;2023-05-10T02:18:07;48449.66;;;-144.14;100.00
7075;BME280;3578;51.568;6.932;2023-05-10T02:20:37;48423.66;;;-144.14;100.00
7075;BME280;3578;51.568;6.932;2023-05-10T02:23:05;48439.66;;;-144.14;100.00
7075;BME280;3578;51.568;6.932;2023-05-10T02:25:34;48413.66;;;-144.14;100.00
7075;BME280;3578;51.568;6.932;2023-05-10T02:28:04;48443.66;;;-144.14;100.00
7075;BME280;3578;51.568;6.932;2023-05-10T02:30:33;48483.69;;;-144.14;100.00
7075;BME280;3578;51.568;6.932;2023-05-10T02:33:02;48461.69;;;-144.14;100.00
7075;BME280;3578;51.568;6.932;2023-05-10T02:35:31;48483.69;;;-144.14;100.00
7075;BME280;3578;51.568;6.932;2023-05-10T02:38:01;48437.66;;;-144.14;100.00
7075;BME280;3578;51.568;6.932;2023-05-10T02:40:28;48449.66;;;-144.14;100.00
7075;BME280;3578;51.568;6.932;2023-05-10T02:42:57;48435.66;;;-144.14;100.00
7075;BME280;3578;51.568;6.932;2023-05-10T02:45:30;48441.66;;;-144.14;100.00
7075;BME280;3578;51.568;6.932;2023-05-10T02:47:59;48451.66;;;-144.14;100.00
7075;BME280;3578;51.568;6.932;2023-05-10T02:50:27;48459.69;;;-144.14;100.00
7075;BME280;3578;51.568;6.932;2023-05-10T02:53:06;48443.66;;;-144.14;100.00
7075;BME280;3578;51.568;6.932;2023-05-10T02:55:40;48421.66;;;-144.14;100.00
7075;BME280;3578;51.568;6.932;2023-05-10T02:58:07;48459.69;;;-144.14;100.00
7075;BME280;3578;51.568;6.932;2023-05-10T03:00:34;48443.66;;;-144.14;100.00
7075;BME280;3578;51.568;6.932;2023-05-10T03:03:02;48473.69;;;-144.14;100.00
7075;BME280;3578;51.568;6.932;2023-05-10T03:05:29;48495.69;;;-144.14;100.00
7075;BME280;3578;51.568;6.932;2023-05-10T03:07:56;48463.69;;;-144.14;100.00
7075;BME280;3578;51.568;6.932;2023-05-10T03:10:28;48463.69;;;-144.14;100.00
7075;BME280;3578;51.568;6.932;2023-05-10T03:13:07;48427.66;;;-144.14;100.00
7075;BME280;3578;51.568;6.932;2023-05-10T03:15:47;48439.66;;;-144.14;100.00
7075;BME280;3578;51.568;6.932;2023-05-10T03:18:22;48411.66;;;-144.14;100.00
7075;BME280;3578;51.568;6.932;2023-05-10T03:20:54;48455.66;;;-144.14;100.00
7075;BME280;3578;51.568;6.932;2023-05-10T03:23:33;48443.66;;;-144.14;100.00
7075;BME280;3578;51.568;6.932;2023-05-10T03:26:03;48471.69;;;-144.14;100.00
7075;BME280;3578;51.568;6.932;2023-05-10T03:28:31;48447.66;;;-144.14;100.00
7075;BME280;3578;51.568;6.932;2023-05-10T03:31:00;48443.66;;;-144.14;100.00
7075;BME280;3578;51.568;6.932;2023-05-10T03:33:29;48407.63;;;-144.14;100.00
7075;BME280;3578;51.568;6.932;2023-05-10T03:35:56;48423.66;;;-144.14;100.00
7075;BME280;3578;51.568;6.932;2023-05-10T03:38:23;48455.66;;;-144.14;100.00
7075;BME280;3578;51.568;6.932;2023-05-10T03:40:50;48455.66;;;-144.14;100.00
7075;BME280;3578;51.568;6.932;2023-05-10T03:43:18;48471.69;;;-144.14;100.00
7075;BME280;3578;51.568;6.932;2023-05-10T03:45:45;48451.66;;;-144.14;100.00
7075;BME280;3578;51.568;6.932;2023-05-10T03:48:12;48487.69;;;-144.14;100.00
7075;BME280;3578;51.568;6.932;2023-05-10T03:50:40;48503.69;;;-144.14;100.00
7075;BME280;3578;51.568;6.932;2023-05-10T03:53:07;48501.69;;;-144.14;100.00
7075;BME280;3578;51.568;6.932;2023-05-10T03:55:34;48501.69;;;-144.14;100.00
7075;BME280;3578;51.568;6.932;2023-05-10T03:58:02;48467.69;;;-144.14;100.00
7075;BME280;3578;51.568;6.932;2023-05-10T04:00:30;48511.72;;;-144.14;100.00
7075;BME280;3578;51.568;6.932;2023-05-10T04:02:58;48501.69;;;-144.14;100.00
7075;BME280;3578;51.568;6.932;2023-05-10T04:05:25;48519.72;;;-144.14;100.00
7075;BME280;3578;51.568;6.932;2023-05-10T04:07:52;48487.69;;;-144.14;100.00
7075;BME280;3578;51.568;6.932;2023-05-10T04:10:19;48463.69;;;-144.14;100.00
7075;BME280;3578;51.568;6.932;2023-05-10T04:12:46;48463.69;;;-144.14;100.00
7075;BME280;3578;51.568;6.932;2023-05-10T04:15:13;48501.69;;;-144.14;100.00
7075;BME280;3578;51.568;6.932;2023-05-10T04:17:42;48475.69;;;-144.14;100.00
7075;BME280;3578;51.568;6.932;2023-05-10T04:20:10;48477.69;;;-144.14;100.00
7075;BME280;3578;51.568;6.932;2023-05-10T04:22:38;48525.72;;;-144.14;100.00
7075;BME280;3578;51.568;6.932;2023-05-10T04:25:06;48511.72;;;-144.14;100.00
7075;BME280;3578;51.568;6.932;2023-05-10T04:27:33;48539.72;;;-144.14;100.00
7075;BME280;3578;51.568;6.932;2023-05-10T04:30:01;48539.72;;;-144.14;100.00
7075;BME280;3578;51.568;6.932;2023-05-10T04:32:28;48577.75;;;-144.14;100.00
7075;BME280;3578;51.568;6.932;2023-05-10T04:34:56;48549.72;;;-144.14;100.00
7075;BME280;3578;51.568;6.932;2023-05-10T04:37:23;48547.72;;;-144.14;100.00
7075;BME280;3578;51.568;6.932;2023-05-10T04:39:50;48567.75;;;-144.14;100.00
7075;BME280;3578;51.568;6.932;2023-05-10T04:42:17;48569.75;;;-144.14;100.00
7075;BME280;3578;51.568;6.932;2023-05-10T04:44:44;48579.75;;;-144.14;100.00
7075;BME280;3578;51.568;6.932;2023-05-10T04:47:11;48567.75;;;-144.14;100.00
7075;BME280;3578;51.568;6.932;2023-05-10T04:49:38;48565.75;;;-144.14;100.00
7075;BME280;3578;51.568;6.932;2023-05-10T04:52:07;48585.75;;;-144.14;100.00
7075;BME280;3578;51.568;6.932;2023-05-10T04:54:34;48571.75;;;-144.14;100.00
7075;BME280;3578;51.568;6.932;2023-05-10T04:57:01;48635.78;;;-144.14;100.00
7075;BME280;3578;51.568;6.932;2023-05-10T04:59:28;48631.78;;;-144.14;100.00
7075;BME280;3578;51.568;6.932;2023-05-10T05:01:55;48607.78;;;-144.14;100.00
7075;BME280;3578;51.568;6.932;2023-05-10T05:04:22;48635.78;;;-144.14;100.00
7075;BME280;3578;51.568;6.932;2023-05-10T05:06:49;48631.78;;;-144.14;100.00
7075;BME280;3578;51.568;6.932;2023-05-10T05:09:18;48683.81;;;-144.14;100.00
7075;BME280;3578;51.568;6.932;2023-05-10T05:11:45;48657.81;;;-144.14;100.00
7075;BME280;3578;51.568;6.932;2023-05-10T05:14:12;48673.81;;;-144.14;100.00
7075;BME280;3578;51.568;6.932;2023-05-10T05:16:38;48703.84;;;-144.14;100.00
7075;BME280;3578;51.568;6.932;2023-05-10T05:19:05;48661.81;;;-144.14;100.00
7075;BME280;3578;51.568;6.932;2023-05-10T05:21:32;48663.81;;;-144.14;100.00
7075;BME280;3578;51.568;6.932;2023-05-10T05:23:59;48715.84;;;-144.14;100.00
7075;BME280;3578;51.568;6.932;2023-05-10T05:26:28;48707.84;;;-144.14;100.00
7075;BME280;3578;51.568;6.932;2023-05-10T05:28:54;48717.84;;;-144.14;100.00
7075;BME280;3578;51.568;6.932;2023-05-10T05:31:21;48701.84;;;-144.14;100.00
7075;BME280;3578;51.568;6.932;2023-05-10T05:33:48;48733.84;;;-144.14;100.00
7075;BME280;3578;51.568;6.932;2023-05-10T05:36:15;48671.81;;;-144.14;100.00
7075;BME280;3578;51.568;6.932;2023-05-10T05:38:42;48717.84;;;-144.14;100.00
7075;BME280;3578;51.568;6.932;2023-05-10T05:41:09;48745.88;;;-144.14;100.00
7075;BME280;3578;51.568;6.932;2023-05-10T05:43:38;48759.88;;;-144.14;100.00
7075;BME280;3578;51.568;6.932;2023-05-10T05:46:05;48735.84;;;-144.14;100.00
7075;BME280;3578;51.568;6.932;2023-05-10T05:48:32;48735.84;;;-144.14;100.00
7075;BME280;3578;51.568;6.932;2023-05-10T05:50:59;48755.88;;;-144.14;100.00
7075;BME280;3578;51.568;6.932;2023-05-10T05:53:26;48755.88;;;-144.14;100.00
7075;BME280;3578;51.568;6.932;2023-05-10T05:55:53;48787.91;;;-144.14;100.00
7075;BME280;3578;51.568;6.932;2023-05-10T05:58:21;48817.91;;;-144.14;100.00
7075;BME280;3578;51.568;6.932;2023-05-10T06:00:49;48847.94;;;-144.14;100.00
7075;BME280;3578;51.568;6.932;2023-05-10T06:03:17;48847.94;;;-144.14;100.00
7075;BME280;3578;51.568;6.932;2023-05-10T06:05:44;48863.94;;;-144.14;100.00
7075;BME280;3578;51.568;6.932;2023-05-10T06:08:11;48885.97;;;-144.14;100.00
7075;BME280;3578;51.568;6.932;2023-05-10T06:10:38;48891.97;;;-144.14;100.00
7075;BME280;3578;51.568;6.932;2023-05-10T06:13:05;48938.00;;;-144.14;100.00
7075;BME280;3578;51.568;6.932;2023-05-10T06:15:32;48950.03;;;-144.14;100.00
7075;BME280;3578;51.568;6.932;2023-05-10T06:18:00;48950.03;;;-144.14;100.00
7075;BME280;3578;51.568;6.932;2023-05-10T06:20:27;48960.03;;;-144.14;100.00
7075;BME280;3578;51.568;6.932;2023-05-10T06:22:54;49000.06;;;-144.14;100.00
7075;BME280;3578;51.568;6.932;2023-05-10T06:25:21;49024.06;;;-144.14;100.00
7075;BME280;3578;51.568;6.932;2023-05-10T06:27:48;49056.09;;;-144.14;100.00
7075;BME280;3578;51.568;6.932;2023-05-10T06:30:16;49060.09;;;-144.14;100.00
7075;BME280;3578;51.568;6.932;2023-05-10T06:32:43;49066.09;;;-144.14;100.00
7075;BME280;3578;51.568;6.932;2023-05-10T06:35:12;49120.16;;;-144.14;100.00
7075;BME280;3578;51.568;6.932;2023-05-10T06:37:39;49140.16;;;-144.14;100.00
7075;BME280;3578;51.568;6.932;2023-05-10T06:40:07;49146.19;;;-144.14;100.00
7075;BME280;3578;51.568;6.932;2023-05-10T06:42:34;49188.22;;;-144.14;100.00
7075;BME280;3578;51.568;6.932;2023-05-10T06:45:02;49226.25;;;-144.14;100.00
7075;BME280;3578;51.568;6.932;2023-05-10T06:47:29;49272.28;;;-144.14;100.00
7075;BME280;3578;51.568;6.932;2023-05-10T06:49:55;49324.31;;;-144.14;100.00
7075;BME280;3578;51.568;6.932;2023-05-10T06:52:24;49364.38;;;-144.14;100.00
7075;BME280;3578;51.568;6.932;2023-05-10T06:54:51;49340.34;;;-144.14;100.00
7075;BME280;3578;51.568;6.932;2023-05-10T06:57:18;49320.31;;;-144.14;100.00
7075;BME280;3578;51.568;6.932;2023-05-10T06:59:45;49342.34;;;-144.14;100.00
7075;BME280;3578;51.568;6.932;2023-05-10T07:02:12;49314.31;;;-144.14;100.00
7075;BME280;3578;51.568;6.932;2023-05-10T07:04:40;49366.38;;;-144.14;100.00
7075;BME280;3578;51.568;6.932;2023-05-10T07:07:07;49340.34;;;-144.14;100.00
7075;BME280;3578;51.568;6.932;2023-05-10T07:09:36;49330.34;;;-144.14;100.00
7075;BME280;3578;51.568;6.932;2023-05-10T07:12:03;49332.34;;;-144.14;100.00
7075;BME280;3578;51.568;6.932;2023-05-10T07:14:30;49298.31;;;-144.14;100.00
7075;BME280;3578;51.568;6.932;2023-05-10T07:16:58;49344.34;;;-144.14;100.00
7075;BME280;3578;51.568;6.932;2023-05-10T07:19:24;49322.31;;;-144.14;100.00
7075;BME280;3578;51.568;6.932;2023-05-10T07:21:51;49348.34;;;-144.14;100.00
7075;BME280;3578;51.568;6.932;2023-05-10T07:24:18;49336.34;;;-144.14;100.00
7075;BME280;3578;51.568;6.932;2023-05-10T07:26:47;49356.34;;;-144.14;100.00
7075;BME280;3578;51.568;6.932;2023-05-10T07:29:14;49392.38;;;-144.14;100.00
7075;BME280;3578;51.568;6.932;2023-05-10T07:31:40;49412.41;;;-144.14;100.00
7075;BME280;3578;51.568;6.932;2023-05-10T07:34:08;49490.47;;;-144.14;100.00
7075;BME280;3578;51.568;6.932;2023-05-10T07:36:35;49538.53;;;-144.14;100.00
7075;BME280;3578;51.568;6.932;2023-05-10T07:39:02;49606.59;;;-144.14;100.00
7075;BME280;3578;51.568;6.932;2023-05-10T07:41:29;49608.59;;;-144.14;100.00
7075;BME280;3578;51.568;6.932;2023-05-10T07:43:58;49670.66;;;-144.14;99.47
7075;BME280;3578;51.568;6.932;2023-05-10T07:46:25;49696.69;;;-144.14;99.22
7075;BME280;3578;51.568;6.932;2023-05-10T07:48:52;49704.69;;;-144.14;99.24
7075;BME280;3578;51.568;6.932;2023-05-10T07:51:18;49770.75;;;-144.14;99.12
7075;BME280;3578;51.568;6.932;2023-05-10T07:53:46;49728.72;;;-144.14;99.64
7075;BME280;3578;51.568;6.932;2023-05-10T07:56:24;49758.75;;;-144.14;99.63
7075;BME280;3578;51.568;6.932;2023-05-10T07:58:53;49764.75;;;-144.14;100.00
7075;BME280;3578;51.568;6.932;2023-05-10T08:01:22;49682.66;;;-144.14;100.00
7075;BME280;3578;51.568;6.932;2023-05-10T08:03:50;49660.63;;;-144.14;100.00
7075;BME280;3578;51.568;6.932;2023-05-10T08:06:19;49660.63;;;-144.14;100.00
7075;BME280;3578;51.568;6.932;2023-05-10T08:08:47;49686.66;;;-144.14;100.00
7075;BME280;3578;51.568;6.932;2023-05-10T08:11:16;49706.69;;;-144.14;100.00
7075;BME280;3578;51.568;6.932;2023-05-10T08:13:43;49736.72;;;-144.14;100.00
7075;BME280;3578;51.568;6.932;2023-05-10T08:16:10;49792.78;;;-144.14;100.00
7075;BME280;3578;51.568;6.932;2023-05-10T08:18:39;49876.84;;;-144.14;98.22
7075;BME280;3578;51.568;6.932;2023-05-10T08:21:07;49952.94;;;-144.14;97.11
7075;BME280;3578;51.568;6.932;2023-05-10T08:23:34;50027.03;;;-144.14;96.52
7075;BME280;3578;51.568;6.932;2023-05-10T08:26:01;50073.06;;;-144.14;95.67
7075;BME280;3578;51.568;6.932;2023-05-10T08:28:28;50147.16;;;-144.14;95.13
7075;BME280;3578;51.568;6.932;2023-05-10T08:30:55;50159.16;;;-144.14;95.60
7075;BME280;3578;51.568;6.932;2023-05-10T08:33:22;50181.19;;;-144.14;94.81
7075;BME280;3578;51.568;6.932;2023-05-10T08:35:51;50333.38;;;-144.14;92.06
7075;BME280;3578;51.568;6.932;2023-05-10T08:38:18;50349.38;;;-144.14;92.39
7075;BME280;3578;51.568;6.932;2023-05-10T08:40:45;50413.47;;;-144.14;92.53
7075;BME280;3578;51.568;6.932;2023-05-10T08:43:15;50463.53;;;-144.14;90.96
7075;BME280;3578;51.568;6.932;2023-05-10T08:45:43;50541.63;;;-144.14;90.03
7075;BME280;3578;51.568;6.932;2023-05-10T08:48:11;50541.63;;;-144.14;90.62
7075;BME280;3578;51.568;6.932;2023-05-10T08:50:41;50525.59;;;-144.14;91.95
7075;BME280;3578;51.568;6.932;2023-05-10T08:53:12;50555.63;;;-144.14;91.87
7075;BME280;3578;51.568;6.932;2023-05-10T08:55:40;50609.72;;;-144.14;91.82
7075;BME280;3578;51.568;6.932;2023-05-10T08:58:09;50677.78;;;-144.14;90.19
7075;BME280;3578;51.568;6.932;2023-05-10T09:00:36;50775.91;;;-144.14;89.37
7075;BME280;3578;51.568;6.932;2023-05-10T09:03:05;50928.13;;;-144.14;87.46
7075;BME280;3578;51.568;6.932;2023-05-10T09:05:32;51020.25;;;-144.14;86.60
7075;BME280;3578;51.568;6.932;2023-05-10T09:07:59;51014.25;;;-144.14;88.22
7075;BME280;3578;51.568;6.932;2023-05-10T09:10:28;51092.34;;;-144.14;86.69
7075;BME280;3578;51.568;6.932;2023-05-10T09:12:57;51070.31;;;-144.14;87.78
7075;BME280;3578;51.568;6.932;2023-05-10T09:15:24;51014.25;;;-144.14;88.81
7075;BME280;3578;51.568;6.932;2023-05-10T09:17:52;51018.25;;;-144.14;89.78
7075;BME280;3578;51.568;6.932;2023-05-10T09:20:19;51002.22;;;-144.14;90.07
7075;BME280;3578;51.568;6.932;2023-05-10T09:22:46;50950.16;;;-144.14;90.81
7075;BME280;3578;51.568;6.932;2023-05-10T09:25:14;51006.22;;;-144.14;90.30
7075;BME280;3578;51.568;6.932;2023-05-10T09:27:46;51058.31;;;-144.14;89.10
7075;BME280;3578;51.568;6.932;2023-05-10T09:30:17;51074.31;;;-144.14;89.89
7075;BME280;3578;51.568;6.932;2023-05-10T09:32:46;51152.44;;;-144.14;89.27
7075;BME280;3578;51.568;6.932;2023-05-10T09:35:15;51286.63;;;-144.14;86.91
7075;BME280;3578;51.568;6.932;2023-05-10T09:37:45;51402.81;;;-144.14;84.64
7075;BME280;3578;51.568;6.932;2023-05-10T09:40:15;51386.78;;;-144.14;84.90
7075;BME280;3578;51.568;6.932;2023-05-10T09:42:53;51410.81;;;-144.14;85.85
7075;BME280;3578;51.568;6.932;2023-05-10T09:45:21;51430.84;;;-144.14;84.86
7075;BME280;3578;51.568;6.932;2023-05-10T09:47:48;51452.88;;;-144.14;84.92
7075;BME280;3578;51.568;6.932;2023-05-10T09:50:15;51408.81;;;-144.14;85.76
7075;BME280;3578;51.568;6.932;2023-05-10T09:52:50;51446.88;;;-144.14;86.38
7075;BME280;3578;51.568;6.932;2023-05-10T09:55:19;51454.88;;;-144.14;86.30
7075;BME280;3578;51.568;6.932;2023-05-10T09:57:49;51464.91;;;-144.14;85.27
7075;BME280;3578;51.568;6.932;2023-05-10T10:00:19;51422.84;;;-144.14;86.64
7075;BME280;3578;51.568;6.932;2023-05-10T10:02:47;51408.81;;;-144.14;87.20
7075;BME280;3578;51.568;6.932;2023-05-10T10:05:15;51420.81;;;-144.14;86.84
7075;BME280;3578;51.568;6.932;2023-05-10T10:07:42;51410.81;;;-144.14;87.86
7075;BME280;3578;51.568;6.932;2023-05-10T10:10:10;51358.72;;;-144.14;88.52
7075;BME280;3578;51.568;6.932;2023-05-10T10:12:41;51342.72;;;-144.14;88.67
7075;BME280;3578;51.568;6.932;2023-05-10T10:15:10;51392.78;;;-144.14;86.97
7075;BME280;3578;51.568;6.932;2023-05-10T10:17:37;51418.81;;;-144.14;87.78
7075;BME280;3578;51.568;6.932;2023-05-10T10:20:07;51370.75;;;-144.14;88.64
7075;BME280;3578;51.568;6.932;2023-05-10T10:22:34;51346.72;;;-144.14;89.21
7075;BME280;3578;51.568;6.932;2023-05-10T10:25:05;51390.78;;;-144.14;88.61
7075;BME280;3578;51.568;6.932;2023-05-10T10:27:43;51414.81;;;-144.14;89.05
7075;BME280;3578;51.568;6.932;2023-05-10T10:30:27;51398.78;;;-144.14;88.78
7075;BME280;3578;51.568;6.932;2023-05-10T10:33:25;51404.81;;;-144.14;89.24
7075;BME280;3578;51.568;6.932;2023-05-10T10:35:55;51448.88;;;-144.14;88.96
7075;BME280;3578;51.568;6.932;2023-05-10T10:38:24;51510.97;;;-144.14;86.76
7075;BME280;3578;51.568;6.932;2023-05-10T10:41:02;51466.91;;;-144.14;87.01
7075;BME280;3578;51.568;6.932;2023-05-10T10:43:29;51537.00;;;-144.14;86.56
7075;BME280;3578;51.568;6.932;2023-05-10T10:46:12;51486.94;;;-144.14;87.74
7075;BME280;3578;51.568;6.932;2023-05-10T10:48:40;51496.94;;;-144.14;87.62
7075;BME280;3578;51.568;6.932;2023-05-10T10:51:07;51494.94;;;-144.14;88.17
7075;BME280;3578;51.568;6.932;2023-05-10T10:53:34;51482.91;;;-144.14;88.23
7075;BME280;3578;51.568;6.932;2023-05-10T10:56:09;51525.00;;;-144.14;87.49
7075;BME280;3578;51.568;6.932;2023-05-10T10:58:37;51575.06;;;-144.14;86.89
7075;BME280;3578;51.568;6.932;2023-05-10T11:01:14;51575.06;;;-144.14;87.10
7075;BME280;3578;51.568;6.932;2023-05-10T11:04:19;51595.09;;;-144.14;87.25
7075;BME280;3578;51.568;6.932;2023-05-10T11:06:46;51619.13;;;-144.14;86.68
7075;BME280;3578;51.568;6.932;2023-05-10T11:09:13;51619.13;;;-144.14;86.51
7075;BME280;3578;51.568;6.932;2023-05-10T11:11:52;51605.09;;;-144.14;86.90
7075;BME280;3578;51.568;6.932;2023-05-10T11:14:21;51575.06;;;-144.14;87.87
7075;BME280;3578;51.568;6.932;2023-05-10T11:16:48;51587.09;;;-144.14;88.21
7075;BME280;3578;51.568;6.932;2023-05-10T11:19:17;51561.03;;;-144.14;88.81
7075;BME280;3578;51.568;6.932;2023-05-10T11:21:47;51561.03;;;-144.14;88.50
7075;BME280;3578;51.568;6.932;2023-05-10T11:24:16;51581.06;;;-144.14;88.42
7075;BME280;3578;51.568;6.932;2023-05-10T11:26:44;51603.09;;;-144.14;88.71
7075;BME280;3578;51.568;6.932;2023-05-10T11:29:13;51571.06;;;-144.14;89.20
7075;BME280;3578;51.568;6.932;2023-05-10T11:31:43;51589.09;;;-144.14;89.80
7075;BME280;3578;51.568;6.932;2023-05-10T11:34:22;51629.16;;;-144.14;87.81
7075;BME280;3578;51.568;6.932;2023-05-10T11:36:54;51697.25;;;-144.14;86.73
7075;BME280;3578;51.568;6.932;2023-05-10T11:39:24;51687.25;;;-144.14;85.38
7075;BME280;3578;51.568;6.932;2023-05-10T11:41:52;51683.22;;;-144.14;86.14
7075;BME280;3578;51.568;6.932;2023-05-10T11:44:19;51639.16;;;-144.14;88.29
7075;BME280;3578;51.568;6.932;2023-05-10T11:46:46;51563.03;;;-144.14;89.42
7075;BME280;3578;51.568;6.932;2023-05-10T11:49:13;51561.03;;;-144.14;90.59
7075;BME280;3578;51.568;6.932;2023-05-10T11:51:40;51533.00;;;-144.14;90.23
7075;BME280;3578;51.568;6.932;2023-05-10T11:54:10;51539.00;;;-144.14;90.22
7075;BME280;3578;51.568;6.932;2023-05-10T11:56:38;51555.03;;;-144.14;90.93
7075;BME280;3578;51.568;6.932;2023-05-10T11:59:06;51559.03;;;-144.14;90.25
7075;BME280;3578;51.568;6.932;2023-05-10T12:01:34;51573.06;;;-144.14;90.79
7075;BME280;3578;51.568;6.932;2023-05-10T12:04:01;51653.19;;;-144.14;90.97
7075;BME280;3578;51.568;6.932;2023-05-10T12:06:30;51667.22;;;-144.14;90.02
7075;BME280;3578;51.568;6.932;2023-05-10T12:08:58;51719.28;;;-144.14;88.85
7075;BME280;3578;51.568;6.932;2023-05-10T12:11:28;51765.38;;;-144.14;87.06
7075;BME280;3578;51.568;6.932;2023-05-10T12:13:55;51829.47;;;-144.14;85.16
7075;BME280;3578;51.568;6.932;2023-05-10T12:16:24;51923.63;;;-144.14;83.63
7075;BME280;3578;51.568;6.932;2023-05-10T12:18:53;51947.66;;;-144.14;83.28
7075;BME280;3578;51.568;6.932;2023-05-10T12:21:21;51979.72;;;-144.14;82.69
7075;BME280;3578;51.568;6.932;2023-05-10T12:23:51;51949.66;;;-144.14;85.44
7075;BME280;3578;51.568;6.932;2023-05-10T12:26:20;51975.72;;;-144.14;84.62
7075;BME280;3578;51.568;6.932;2023-05-10T12:28:49;51991.72;;;-144.14;82.88
7075;BME280;3578;51.568;6.932;2023-05-10T12:31:16;52061.84;;;-144.14;80.85
7075;BME280;3578;51.568;6.932;2023-05-10T12:33:45;52083.88;;;-144.14;81.54
7075;BME280;3578;51.568;6.932;2023-05-10T12:36:14;52099.91;;;-144.14;80.75
7075;BME280;3578;51.568;6.932;2023-05-10T12:38:42;52156.00;;;-144.14;79.38
7075;BME280;3578;51.568;6.932;2023-05-10T12:41:11;52218.13;;;-144.14;79.72
7075;BME280;3578;51.568;6.932;2023-05-10T12:43:39;52218.13;;;-144.14;78.48
7075;BME280;3578;51.568;6.932;2023-05-10T12:46:09;52264.19;;;-144.14;78.93
7075;BME280;3578;51.568;6.932;2023-05-10T12:48:37;52284.25;;;-144.14;77.61
7075;BME280;3578;51.568;6.932;2023-05-10T12:51:06;52318.28;;;-144.14;79.10
7075;BME280;3578;51.568;6.932;2023-05-10T12:53:35;52408.47;;;-144.14;74.89
7075;BME280;3578;51.568;6.932;2023-05-10T12:56:02;52480.59;;;-144.14;73.33
7075;BME280;3578;51.568;6.932;2023-05-10T12:58:29;52504.63;;;-144.14;71.41
7075;BME280;3578;51.568;6.932;2023-05-10T13:00:57;52584.78;;;-144.14;70.84
7075;BME280;3578;51.568;6.932;2023-05-10T13:03:26;52654.91;;;-144.14;70.47
7075;BME280;3578;51.568;6.932;2023-05-10T13:05:53;52640.88;;;-144.14;72.45